sensor_id;sensor_type;location;lat;lon;timestamp;temperature;humidity
78184;DHT22;67442;44.570;18.610;2023-02-10T00:01:27;-7.80;97.50
78184;DHT22;67442;44.570;18.610;2023-02-10T00:03:54;-7.90;97.40
78184;DHT22;67442;44.570;18.610;2023-02-10T00:06:23;-7.80;97.50
78184;DHT22;67442;44.570;18.610;2023-02-10T00:09:01;-7.70;97.70
78184;DHT22;67442;44.570;18.610;2023-02-10T00:11:28;-7.70;97.30
78184;DHT22;67442;44.570;18.610;2023-02-10T00:14:13;-7.60;97.40
78184;DHT22;67442;44.570;18.610;2023-02-10T00:16:41;-7.70;97.20
78184;DHT22;67442;44.570;18.610;2023-02-10T00:19:12;-7.70;97.20
78184;DHT22;67442;44.570;18.610;2023-02-10T00:21:39;-7.80;97.20
78184;DHT22;67442;44.570;18.610;2023-02-10T00:24:09;-7.90;97.10
78184;DHT22;67442;44.570;18.610;2023-02-10T00:26:40;-8.00;97.10
78184;DHT22;67442;44.570;18.610;2023-02-10T00:29:07;-8.00;97.30
78184;DHT22;67442;44.570;18.610;2023-02-10T00:31:36;-8.10;96.90
78184;DHT22;67442;44.570;18.610;2023-02-10T00:34:03;-8.20;96.70
78184;DHT22;67442;44.570;18.610;2023-02-10T00:36:34;-8.20;96.80
78184;DHT22;67442;44.570;18.610;2023-02-10T00:39:03;-8.20;96.90
78184;DHT22;67442;44.570;18.610;2023-02-10T00:41:30;-8.30;96.90
78184;DHT22;67442;44.570;18.610;2023-02-10T00:43:57;-8.30;97.00
78184;DHT22;67442;44.570;18.610;2023-02-10T00:46:24;-8.30;97.00
78184;DHT22;67442;44.570;18.610;2023-02-10T00:48:52;-8.20;97.20
78184;DHT22;67442;44.570;18.610;2023-02-10T00:51:23;-8.20;97.10
78184;DHT22;67442;44.570;18.610;2023-02-10T00:53:51;-8.20;97.10
78184;DHT22;67442;44.570;18.610;2023-02-10T00:56:20;-8.20;97.00
78184;DHT22;67442;44.570;18.610;2023-02-10T00:58:47;-8.20;97.00
78184;DHT22;67442;44.570;18.610;2023-02-10T01:01:15;-8.20;96.70
78184;DHT22;67442;44.570;18.610;2023-02-10T01:03:43;-8.30;96.20
78184;DHT22;67442;44.570;18.610;2023-02-10T01:06:12;-8.40;96.20
78184;DHT22;67442;44.570;18.610;2023-02-10T01:08:39;-8.50;96.30
78184;DHT22;67442;44.570;18.610;2023-02-10T01:11:08;-8.50;96.40
78184;DHT22;67442;44.570;18.610;2023-02-10T01:13:37;-8.50;96.60
78184;DHT22;67442;44.570;18.610;2023-02-10T01:16:08;-8.60;96.50
78184;DHT22;67442;44.570;18.610;2023-02-10T01:18:39;-8.60;96.50
78184;DHT22;67442;44.570;18.610;2023-02-10T01:21:16;-8.70;96.60
78184;DHT22;67442;44.570;18.610;2023-02-10T01:23:45;-8.60;96.70
78184;DHT22;67442;44.570;18.610;2023-02-10T01:26:12;-8.60;96.80
78184;DHT22;67442;44.570;18.610;2023-02-10T01:28:40;-8.60;96.80
78184;DHT22;67442;44.570;18.610;2023-02-10T01:31:08;-8.60;96.80
78184;DHT22;67442;44.570;18.610;2023-02-10T01:33:36;-8.70;96.70
78184;DHT22;67442;44.570;18.610;2023-02-10T01:36:09;-8.70;96.70
78184;DHT22;67442;44.570;18.610;2023-02-10T01:38:36;-8.80;96.70
78184;DHT22;67442;44.570;18.610;2023-02-10T01:41:04;-8.70;96.80
78184;DHT22;67442;44.570;18.610;2023-02-10T01:43:31;-8.70;97.10
78184;DHT22;67442;44.570;18.610;2023-02-10T01:45:58;-8.60;97.20
78184;DHT22;67442;44.570;18.610;2023-02-10T01:48:25;-8.50;97.10
78184;DHT22;67442;44.570;18.610;2023-02-10T01:51:03;-8.60;97.00
78184;DHT22;67442;44.570;18.610;2023-02-10T01:53:32;-8.60;97.00
78184;DHT22;67442;44.570;18.610;2023-02-10T01:56:01;-8.60;97.00
78184;DHT22;67442;44.570;18.610;2023-02-10T01:58:29;-8.60;96.90
78184;DHT22;67442;44.570;18.610;2023-02-10T02:01:03;-8.70;96.80
78184;DHT22;67442;44.570;18.610;2023-02-10T02:03:30;-8.80;97.10
78184;DHT22;67442;44.570;18.610;2023-02-10T02:06:02;-8.80;96.70
78184;DHT22;67442;44.570;18.610;2023-02-10T02:08:30;-8.80;96.80
78184;DHT22;67442;44.570;18.610;2023-02-10T02:16:48;-8.80;96.90
78184;DHT22;67442;44.570;18.610;2023-02-10T02:25:42;-8.80;97.00
78184;DHT22;67442;44.570;18.610;2023-02-10T02:28:18;-8.80;97.00
78184;DHT22;67442;44.570;18.610;2023-02-10T02:36:25;-8.80;97.00
78184;DHT22;67442;44.570;18.610;2023-02-10T02:39:07;-8.70;97.00
78184;DHT22;67442;44.570;18.610;2023-02-10T02:41:35;-8.80;96.90
78184;DHT22;67442;44.570;18.610;2023-02-10T02:44:06;-8.80;97.20
78184;DHT22;67442;44.570;18.610;2023-02-10T02:47:09;-8.90;96.50
78184;DHT22;67442;44.570;18.610;2023-02-10T02:49:49;-9.00;96.40
78184;DHT22;67442;44.570;18.610;2023-02-10T02:55:07;-9.00;96.30
78184;DHT22;67442;44.570;18.610;2023-02-10T02:57:45;-9.10;96.10
78184;DHT22;67442;44.570;18.610;2023-02-10T03:00:18;-9.20;96.00
78184;DHT22;67442;44.570;18.610;2023-02-10T03:02:47;-9.20;96.00
78184;DHT22;67442;44.570;18.610;2023-02-10T03:05:23;-9.20;96.20
78184;DHT22;67442;44.570;18.610;2023-02-10T03:07:50;-9.20;96.30
78184;DHT22;67442;44.570;18.610;2023-02-10T03:10:21;-9.20;96.30
78184;DHT22;67442;44.570;18.610;2023-02-10T03:12:49;-9.20;96.30
78184;DHT22;67442;44.570;18.610;2023-02-10T03:15:18;-9.20;96.30
78184;DHT22;67442;44.570;18.610;2023-02-10T03:17:47;-9.20;96.30
78184;DHT22;67442;44.570;18.610;2023-02-10T03:20:17;-9.20;96.20
78184;DHT22;67442;44.570;18.610;2023-02-10T03:22:46;-9.20;96.20
78184;DHT22;67442;44.570;18.610;2023-02-10T03:25:13;-9.30;96.00
78184;DHT22;67442;44.570;18.610;2023-02-10T03:27:41;-9.30;96.00
78184;DHT22;67442;44.570;18.610;2023-02-10T03:30:12;-9.30;96.20
78184;DHT22;67442;44.570;18.610;2023-02-10T03:32:39;-9.40;96.10
78184;DHT22;67442;44.570;18.610;2023-02-10T03:35:07;-9.40;96.00
78184;DHT22;67442;44.570;18.610;2023-02-10T03:37:34;-9.40;96.00
78184;DHT22;67442;44.570;18.610;2023-02-10T03:40:06;-9.40;95.90
78184;DHT22;67442;44.570;18.610;2023-02-10T03:42:34;-9.50;95.80
78184;DHT22;67442;44.570;18.610;2023-02-10T03:45:01;-9.50;95.90
78184;DHT22;67442;44.570;18.610;2023-02-10T03:47:29;-9.50;96.00
78184;DHT22;67442;44.570;18.610;2023-02-10T03:49:56;-9.50;96.10
78184;DHT22;67442;44.570;18.610;2023-02-10T03:52:26;-9.50;96.10
78184;DHT22;67442;44.570;18.610;2023-02-10T03:54:54;-9.50;96.10
78184;DHT22;67442;44.570;18.610;2023-02-10T03:57:21;-9.50;96.30
78184;DHT22;67442;44.570;18.610;2023-02-10T03:59:48;-9.50;96.40
78184;DHT22;67442;44.570;18.610;2023-02-10T04:02:19;-9.40;96.30
78184;DHT22;67442;44.570;18.610;2023-02-10T04:04:47;-9.50;96.20
78184;DHT22;67442;44.570;18.610;2023-02-10T04:07:14;-9.40;96.20
78184;DHT22;67442;44.570;18.610;2023-02-10T04:09:41;-9.50;96.10
78184;DHT22;67442;44.570;18.610;2023-02-10T04:12:09;-9.50;96.00
78184;DHT22;67442;44.570;18.610;2023-02-10T04:14:36;-9.50;95.90
78184;DHT22;67442;44.570;18.610;2023-02-10T04:17:07;-9.60;95.70
78184;DHT22;67442;44.570;18.610;2023-02-10T04:19:35;-9.60;95.80
78184;DHT22;67442;44.570;18.610;2023-02-10T04:22:02;-9.60;95.80
78184;DHT22;67442;44.570;18.610;2023-02-10T04:24:30;-9.70;95.70
78184;DHT22;67442;44.570;18.610;2023-02-10T04:26:57;-9.70;95.90
78184;DHT22;67442;44.570;18.610;2023-02-10T04:29:24;-9.60;96.10
78184;DHT22;67442;44.570;18.610;2023-02-10T04:31:52;-9.60;96.20
78184;DHT22;67442;44.570;18.610;2023-02-10T04:34:19;-9.60;96.10
78184;DHT22;67442;44.570;18.610;2023-02-10T04:36:46;-9.60;96.00
78184;DHT22;67442;44.570;18.610;2023-02-10T04:39:13;-9.60;95.80
78184;DHT22;67442;44.570;18.610;2023-02-10T04:41:41;-9.60;95.70
78184;DHT22;67442;44.570;18.610;2023-02-10T04:44:13;-9.70;95.90
78184;DHT22;67442;44.570;18.610;2023-02-10T04:46:41;-9.70;95.90
78184;DHT22;67442;44.570;18.610;2023-02-10T04:49:08;-9.70;95.90
78184;DHT22;67442;44.570;18.610;2023-02-10T04:51:39;-9.70;96.00
78184;DHT22;67442;44.570;18.610;2023-02-10T04:54:06;-9.60;96.20
78184;DHT22;67442;44.570;18.610;2023-02-10T04:56:37;-9.60;96.10
78184;DHT22;67442;44.570;18.610;2023-02-10T04:59:04;-9.60;96.10
78184;DHT22;67442;44.570;18.610;2023-02-10T05:01:31;-9.60;96.00
78184;DHT22;67442;44.570;18.610;2023-02-10T05:03:59;-9.60;95.70
78184;DHT22;67442;44.570;18.610;2023-02-10T05:06:26;-9.60;95.70
78184;DHT22;67442;44.570;18.610;2023-02-10T05:08:53;-9.70;95.80
78184;DHT22;67442;44.570;18.610;2023-02-10T05:11:24;-9.70;95.90
78184;DHT22;67442;44.570;18.610;2023-02-10T05:13:51;-9.70;96.00
78184;DHT22;67442;44.570;18.610;2023-02-10T05:16:18;-9.70;96.00
78184;DHT22;67442;44.570;18.610;2023-02-10T05:18:45;-9.70;95.80
78184;DHT22;67442;44.570;18.610;2023-02-10T05:21:14;-9.70;95.70
78184;DHT22;67442;44.570;18.610;2023-02-10T05:23:41;-9.80;95.60
78184;DHT22;67442;44.570;18.610;2023-02-10T05:26:08;-9.80;95.70
78184;DHT22;67442;44.570;18.610;2023-02-10T05:28:35;-9.80;95.70
78184;DHT22;67442;44.570;18.610;2023-02-10T05:31:02;-9.80;95.90
78184;DHT22;67442;44.570;18.610;2023-02-10T05:33:33;-9.70;96.00
78184;DHT22;67442;44.570;18.610;2023-02-10T05:36:01;-9.70;95.90
78184;DHT22;67442;44.570;18.610;2023-02-10T05:38:28;-9.70;95.80
78184;DHT22;67442;44.570;18.610;2023-02-10T05:40:59;-9.70;95.70
78184;DHT22;67442;44.570;18.610;2023-02-10T05:43:31;-9.80;95.50
78184;DHT22;67442;44.570;18.610;2023-02-10T05:45:58;-9.80;95.50
78184;DHT22;67442;44.570;18.610;2023-02-10T05:48:29;-9.80;95.60
78184;DHT22;67442;44.570;18.610;2023-02-10T05:50:56;-9.70;95.70
78184;DHT22;67442;44.570;18.610;2023-02-10T05:53:24;-9.60;95.70
78184;DHT22;67442;44.570;18.610;2023-02-10T05:55:51;-9.60;95.60
78184;DHT22;67442;44.570;18.610;2023-02-10T05:58:22;-9.70;95.50
78184;DHT22;67442;44.570;18.610;2023-02-10T06:00:49;-9.70;95.50
78184;DHT22;67442;44.570;18.610;2023-02-10T06:03:20;-9.70;95.60
78184;DHT22;67442;44.570;18.610;2023-02-10T06:05:51;-9.70;95.60
78184;DHT22;67442;44.570;18.610;2023-02-10T06:08:19;-9.70;95.70
78184;DHT22;67442;44.570;18.610;2023-02-10T06:10:46;-9.50;95.80
78184;DHT22;67442;44.570;18.610;2023-02-10T06:13:14;-9.50;95.80
78184;DHT22;67442;44.570;18.610;2023-02-10T06:15:41;-9.40;95.70
78184;DHT22;67442;44.570;18.610;2023-02-10T06:18:08;-9.40;95.60
78184;DHT22;67442;44.570;18.610;2023-02-10T06:20:36;-9.40;95.60
78184;DHT22;67442;44.570;18.610;2023-02-10T06:23:02;-9.30;95.60
78184;DHT22;67442;44.570;18.610;2023-02-10T06:25:29;-9.30;95.30
78184;DHT22;67442;44.570;18.610;2023-02-10T06:27:56;-9.30;95.10
78184;DHT22;67442;44.570;18.610;2023-02-10T06:30:24;-9.30;95.20
78184;DHT22;67442;44.570;18.610;2023-02-10T06:32:55;-9.20;95.40
78184;DHT22;67442;44.570;18.610;2023-02-10T06:35:23;-9.10;95.50
78184;DHT22;67442;44.570;18.610;2023-02-10T06:37:50;-8.90;95.50
78184;DHT22;67442;44.570;18.610;2023-02-10T06:40:17;-8.80;95.40
78184;DHT22;67442;44.570;18.610;2023-02-10T06:42:44;-8.70;94.90
78184;DHT22;67442;44.570;18.610;2023-02-10T06:45:12;-8.60;94.70
78184;DHT22;67442;44.570;18.610;2023-02-10T06:47:39;-8.50;94.70
78184;DHT22;67442;44.570;18.610;2023-02-10T06:50:06;-8.40;94.60
78184;DHT22;67442;44.570;18.610;2023-02-10T06:52:35;-8.20;94.60
78184;DHT22;67442;44.570;18.610;2023-02-10T06:55:05;-8.10;94.50
78184;DHT22;67442;44.570;18.610;2023-02-10T06:57:33;-7.90;94.40
78184;DHT22;67442;44.570;18.610;2023-02-10T07:00:04;-7.80;94.40
78184;DHT22;67442;44.570;18.610;2023-02-10T07:02:34;-7.60;94.30
78184;DHT22;67442;44.570;18.610;2023-02-10T07:05:01;-7.50;94.00
78184;DHT22;67442;44.570;18.610;2023-02-10T07:07:31;-7.40;93.80
78184;DHT22;67442;44.570;18.610;2023-02-10T07:09:58;-7.20;93.70
78184;DHT22;67442;44.570;18.610;2023-02-10T07:12:26;-7.00;93.20
78184;DHT22;67442;44.570;18.610;2023-02-10T07:14:53;-7.00;93.00
78184;DHT22;67442;44.570;18.610;2023-02-10T07:17:20;-6.80;93.20
78184;DHT22;67442;44.570;18.610;2023-02-10T07:19:48;-6.70;93.20
78184;DHT22;67442;44.570;18.610;2023-02-10T07:22:15;-6.50;93.00
78184;DHT22;67442;44.570;18.610;2023-02-10T07:24:42;-6.40;93.00
78184;DHT22;67442;44.570;18.610;2023-02-10T07:27:09;-6.30;93.10
78184;DHT22;67442;44.570;18.610;2023-02-10T07:29:36;-6.10;92.60
78184;DHT22;67442;44.570;18.610;2023-02-10T07:32:04;-6.00;92.80
78184;DHT22;67442;44.570;18.610;2023-02-10T07:34:30;-5.80;92.80
78184;DHT22;67442;44.570;18.610;2023-02-10T07:37:00;-5.60;92.70
78184;DHT22;67442;44.570;18.610;2023-02-10T07:39:31;-5.50;92.70
78184;DHT22;67442;44.570;18.610;2023-02-10T07:42:02;-5.30;92.60
78184;DHT22;67442;44.570;18.610;2023-02-10T07:44:29;-5.10;92.60
78184;DHT22;67442;44.570;18.610;2023-02-10T07:47:00;-5.00;92.60
78184;DHT22;67442;44.570;18.610;2023-02-10T07:49:27;-4.80;92.50
78184;DHT22;67442;44.570;18.610;2023-02-10T07:51:55;-4.70;92.60
78184;DHT22;67442;44.570;18.610;2023-02-10T07:54:22;-4.60;92.50
78184;DHT22;67442;44.570;18.610;2023-02-10T07:56:50;-4.40;92.50
78184;DHT22;67442;44.570;18.610;2023-02-10T07:59:17;-4.30;92.60
78184;DHT22;67442;44.570;18.610;2023-02-10T08:01:44;-4.10;92.40
78184;DHT22;67442;44.570;18.610;2023-02-10T08:04:15;-3.90;92.40
78184;DHT22;67442;44.570;18.610;2023-02-10T08:06:42;-3.70;92.30
78184;DHT22;67442;44.570;18.610;2023-02-10T08:09:10;-3.50;92.10
78184;DHT22;67442;44.570;18.610;2023-02-10T08:11:38;-3.30;91.90
78184;DHT22;67442;44.570;18.610;2023-02-10T08:14:06;-3.20;91.60
78184;DHT22;67442;44.570;18.610;2023-02-10T08:16:33;-3.00;91.40
78184;DHT22;67442;44.570;18.610;2023-02-10T08:19:01;-2.90;91.30
78184;DHT22;67442;44.570;18.610;2023-02-10T08:21:29;-2.80;90.90
78184;DHT22;67442;44.570;18.610;2023-02-10T08:23:57;-2.60;90.30
78184;DHT22;67442;44.570;18.610;2023-02-10T08:26:24;-2.50;90.00
78184;DHT22;67442;44.570;18.610;2023-02-10T08:28:51;-2.30;90.10
78184;DHT22;67442;44.570;18.610;2023-02-10T08:31:17;-2.20;89.50
78184;DHT22;67442;44.570;18.610;2023-02-10T08:33:45;-2.30;88.20
78184;DHT22;67442;44.570;18.610;2023-02-10T08:36:13;-2.30;88.00
78184;DHT22;67442;44.570;18.610;2023-02-10T08:38:40;-2.20;88.40
78184;DHT22;67442;44.570;18.610;2023-02-10T08:41:11;-2.10;88.40
78184;DHT22;67442;44.570;18.610;2023-02-10T08:43:41;-1.90;87.70
78184;DHT22;67442;44.570;18.610;2023-02-10T08:46:09;-1.70;86.00
78184;DHT22;67442;44.570;18.610;2023-02-10T08:48:36;-1.50;85.40
78184;DHT22;67442;44.570;18.610;2023-02-10T08:51:09;-1.40;85.00
78184;DHT22;67442;44.570;18.610;2023-02-10T08:53:36;-1.30;84.20
78184;DHT22;67442;44.570;18.610;2023-02-10T08:56:09;-1.10;84.30
78184;DHT22;67442;44.570;18.610;2023-02-10T08:58:36;-1.00;85.20
78184;DHT22;67442;44.570;18.610;2023-02-10T09:01:17;-0.90;84.10
78184;DHT22;67442;44.570;18.610;2023-02-10T09:03:48;-0.80;84.00
78184;DHT22;67442;44.570;18.610;2023-02-10T09:06:19;-0.70;84.60
78184;DHT22;67442;44.570;18.610;2023-02-10T09:08:46;-0.50;83.90
78184;DHT22;67442;44.570;18.610;2023-02-10T09:11:15;-0.40;83.40
78184;DHT22;67442;44.570;18.610;2023-02-10T09:13:42;-0.30;83.10
78184;DHT22;67442;44.570;18.610;2023-02-10T09:16:09;-0.20;82.40
78184;DHT22;67442;44.570;18.610;2023-02-10T09:18:36;-0.10;81.00
78184;DHT22;67442;44.570;18.610;2023-02-10T09:21:03;0.00;81.40
78184;DHT22;67442;44.570;18.610;2023-02-10T09:23:31;0.20;82.10
78184;DHT22;67442;44.570;18.610;2023-02-10T09:25:59;0.30;80.80
78184;DHT22;67442;44.570;18.610;2023-02-10T09:28:26;0.40;79.20
78184;DHT22;67442;44.570;18.610;2023-02-10T09:30:53;0.50;79.70
78184;DHT22;67442;44.570;18.610;2023-02-10T09:33:20;0.60;80.10
78184;DHT22;67442;44.570;18.610;2023-02-10T09:35:47;0.70;78.10
78184;DHT22;67442;44.570;18.610;2023-02-10T09:38:14;0.70;77.10
78184;DHT22;67442;44.570;18.610;2023-02-10T09:41:24;0.90;76.50
78184;DHT22;67442;44.570;18.610;2023-02-10T09:49:22;1.10;76.40
78184;DHT22;67442;44.570;18.610;2023-02-10T09:54:40;1.30;76.50
78184;DHT22;67442;44.570;18.610;2023-02-10T09:57:18;1.30;76.60
78184;DHT22;67442;44.570;18.610;2023-02-10T09:59:50;1.40;76.30
78184;DHT22;67442;44.570;18.610;2023-02-10T10:02:39;1.50;75.00
78184;DHT22;67442;44.570;18.610;2023-02-10T10:05:20;1.60;73.90
78184;DHT22;67442;44.570;18.610;2023-02-10T10:07:50;1.70;73.00
78184;DHT22;67442;44.570;18.610;2023-02-10T10:10:42;1.70;72.80
78184;DHT22;67442;44.570;18.610;2023-02-10T10:13:20;1.80;72.70
78184;DHT22;67442;44.570;18.610;2023-02-10T10:21:30;2.00;71.60
78184;DHT22;67442;44.570;18.610;2023-02-10T10:29:52;2.30;68.70
78184;DHT22;67442;44.570;18.610;2023-02-10T10:32:46;2.50;69.10
78184;DHT22;67442;44.570;18.610;2023-02-10T10:35:18;2.60;68.40
78184;DHT22;67442;44.570;18.610;2023-02-10T10:37:50;2.60;68.10
78184;DHT22;67442;44.570;18.610;2023-02-10T10:40:30;2.60;68.10
78184;DHT22;67442;44.570;18.610;2023-02-10T10:42:59;2.60;67.70
78184;DHT22;67442;44.570;18.610;2023-02-10T10:45:44;2.70;66.70
78184;DHT22;67442;44.570;18.610;2023-02-10T10:48:24;2.80;65.10
78184;DHT22;67442;44.570;18.610;2023-02-10T10:51:03;2.90;67.50
78184;DHT22;67442;44.570;18.610;2023-02-10T10:53:42;3.10;65.30
78184;DHT22;67442;44.570;18.610;2023-02-10T10:56:47;3.10;65.20
78184;DHT22;67442;44.570;18.610;2023-02-10T11:01:51;3.30;62.60
78184;DHT22;67442;44.570;18.610;2023-02-10T11:04:22;3.30;63.10
78184;DHT22;67442;44.570;18.610;2023-02-10T11:06:56;3.30;64.00
78184;DHT22;67442;44.570;18.610;2023-02-10T11:09:40;3.40;63.00
78184;DHT22;67442;44.570;18.610;2023-02-10T11:14:53;3.50;61.80
78184;DHT22;67442;44.570;18.610;2023-02-10T11:17:34;3.60;62.70
78184;DHT22;67442;44.570;18.610;2023-02-10T11:20:27;3.60;61.40
78184;DHT22;67442;44.570;18.610;2023-02-10T11:23:04;3.60;61.30
78184;DHT22;67442;44.570;18.610;2023-02-10T11:25:38;3.70;63.70
78184;DHT22;67442;44.570;18.610;2023-02-10T11:28:20;3.70;62.10
78184;DHT22;67442;44.570;18.610;2023-02-10T11:31:16;3.60;61.10
78184;DHT22;67442;44.570;18.610;2023-02-10T11:33:55;3.60;60.60
78184;DHT22;67442;44.570;18.610;2023-02-10T11:36:33;3.70;62.70
78184;DHT22;67442;44.570;18.610;2023-02-10T11:39:05;3.80;61.10
78184;DHT22;67442;44.570;18.610;2023-02-10T11:41:33;3.80;60.20
78184;DHT22;67442;44.570;18.610;2023-02-10T11:44:01;3.80;60.50
78184;DHT22;67442;44.570;18.610;2023-02-10T11:46:30;3.70;59.60
78184;DHT22;67442;44.570;18.610;2023-02-10T11:49:03;3.70;59.60
78184;DHT22;67442;44.570;18.610;2023-02-10T11:51:31;3.70;60.10
78184;DHT22;67442;44.570;18.610;2023-02-10T11:54:02;3.70;60.20
78184;DHT22;67442;44.570;18.610;2023-02-10T12:08:27;4.40;59.50
78184;DHT22;67442;44.570;18.610;2023-02-10T12:11:19;4.50;58.70
78184;DHT22;67442;44.570;18.610;2023-02-10T12:25:33;4.80;56.90
78184;DHT22;67442;44.570;18.610;2023-02-10T12:31:04;4.70;58.10
78184;DHT22;67442;44.570;18.610;2023-02-10T12:34:00;4.70;57.70
78184;DHT22;67442;44.570;18.610;2023-02-10T12:50:55;4.70;57.10
78184;DHT22;67442;44.570;18.610;2023-02-10T12:53:16;4.60;56.30
78184;DHT22;67442;44.570;18.610;2023-02-10T12:56:10;4.50;57.90
78184;DHT22;67442;44.570;18.610;2023-02-10T12:58:46;4.50;57.70
78184;DHT22;67442;44.570;18.610;2023-02-10T13:01:35;4.40;56.20
78184;DHT22;67442;44.570;18.610;2023-02-10T13:04:44;4.00;57.00
78184;DHT22;67442;44.570;18.610;2023-02-10T13:07:28;4.10;58.90
78184;DHT22;67442;44.570;18.610;2023-02-10T13:10:22;4.20;58.00
78184;DHT22;67442;44.570;18.610;2023-02-10T13:12:53;4.30;56.90
78184;DHT22;67442;44.570;18.610;2023-02-10T13:15:33;4.40;56.70
78184;DHT22;67442;44.570;18.610;2023-02-10T13:18:02;4.50;56.30
78184;DHT22;67442;44.570;18.610;2023-02-10T13:20:42;4.50;55.40
78184;DHT22;67442;44.570;18.610;2023-02-10T13:32:11;4.30;57.40
78184;DHT22;67442;44.570;18.610;2023-02-10T13:34:49;4.40;56.90
78184;DHT22;67442;44.570;18.610;2023-02-10T13:40:18;4.50;55.50
78184;DHT22;67442;44.570;18.610;2023-02-10T13:43:02;4.40;56.00
78184;DHT22;67442;44.570;18.610;2023-02-10T13:45:37;4.30;56.40
78184;DHT22;67442;44.570;18.610;2023-02-10T13:48:06;4.40;57.90
78184;DHT22;67442;44.570;18.610;2023-02-10T13:51:07;4.50;56.40
78184;DHT22;67442;44.570;18.610;2023-02-10T13:58:33;4.50;55.50
78184;DHT22;67442;44.570;18.610;2023-02-10T14:01:00;4.20;55.20
78184;DHT22;67442;44.570;18.610;2023-02-10T14:03:32;4.20;56.30
78184;DHT22;67442;44.570;18.610;2023-02-10T14:06:06;4.30;57.40
78184;DHT22;67442;44.570;18.610;2023-02-10T14:08:38;4.40;57.30
78184;DHT22;67442;44.570;18.610;2023-02-10T14:11:10;4.40;56.60
78184;DHT22;67442;44.570;18.610;2023-02-10T14:13:59;4.40;55.90
78184;DHT22;67442;44.570;18.610;2023-02-10T14:16:36;4.40;56.90
78184;DHT22;67442;44.570;18.610;2023-02-10T14:19:28;4.40;57.70
78184;DHT22;67442;44.570;18.610;2023-02-10T14:22:31;4.30;56.40
78184;DHT22;67442;44.570;18.610;2023-02-10T14:25:17;4.20;56.70
78184;DHT22;67442;44.570;18.610;2023-02-10T14:27:53;4.20;56.00
78184;DHT22;67442;44.570;18.610;2023-02-10T14:30:34;4.10;57.10
78184;DHT22;67442;44.570;18.610;2023-02-10T14:33:03;4.20;57.30
78184;DHT22;67442;44.570;18.610;2023-02-10T14:35:31;4.10;57.20
78184;DHT22;67442;44.570;18.610;2023-02-10T14:38:03;4.10;57.40
78184;DHT22;67442;44.570;18.610;2023-02-10T14:40:37;4.00;57.10
78184;DHT22;67442;44.570;18.610;2023-02-10T14:43:13;4.00;58.10
78184;DHT22;67442;44.570;18.610;2023-02-10T14:45:47;4.00;58.00
78184;DHT22;67442;44.570;18.610;2023-02-10T14:48:14;3.90;58.10
78184;DHT22;67442;44.570;18.610;2023-02-10T14:51:24;3.80;58.20
78184;DHT22;67442;44.570;18.610;2023-02-10T14:53:51;3.70;57.70
78184;DHT22;67442;44.570;18.610;2023-02-10T14:56:27;3.70;58.30
78184;DHT22;67442;44.570;18.610;2023-02-10T14:58:54;3.60;58.40
78184;DHT22;67442;44.570;18.610;2023-02-10T15:01:36;3.50;58.80
78184;DHT22;67442;44.570;18.610;2023-02-10T15:04:03;3.40;60.40
78184;DHT22;67442;44.570;18.610;2023-02-10T15:06:31;3.30;60.90
78184;DHT22;67442;44.570;18.610;2023-02-10T15:09:28;3.10;63.10
78184;DHT22;67442;44.570;18.610;2023-02-10T15:12:00;3.00;62.50
78184;DHT22;67442;44.570;18.610;2023-02-10T15:17:09;2.70;65.40
78184;DHT22;67442;44.570;18.610;2023-02-10T15:19:48;2.60;68.30
78184;DHT22;67442;44.570;18.610;2023-02-10T15:22:38;2.40;67.60
78184;DHT22;67442;44.570;18.610;2023-02-10T15:33:37;1.90;71.70
78184;DHT22;67442;44.570;18.610;2023-02-10T15:38:53;1.50;71.40
78184;DHT22;67442;44.570;18.610;2023-02-10T15:41:40;1.20;73.90
78184;DHT22;67442;44.570;18.610;2023-02-10T15:46:52;0.90;75.10
78184;DHT22;67442;44.570;18.610;2023-02-10T15:49:20;0.80;76.30
78184;DHT22;67442;44.570;18.610;2023-02-10T15:51:53;0.50;77.00
78184;DHT22;67442;44.570;18.610;2023-02-10T15:54:25;0.40;78.20
78184;DHT22;67442;44.570;18.610;2023-02-10T15:57:13;0.20;79.90
78184;DHT22;67442;44.570;18.610;2023-02-10T15:59:44;0.10;80.30
78184;DHT22;67442;44.570;18.610;2023-02-10T16:02:20;-0.10;81.90
78184;DHT22;67442;44.570;18.610;2023-02-10T16:04:47;-0.20;81.80
78184;DHT22;67442;44.570;18.610;2023-02-10T16:07:24;-0.30;82.40
78184;DHT22;67442;44.570;18.610;2023-02-10T16:09:55;-0.50;83.50
78184;DHT22;67442;44.570;18.610;2023-02-10T16:12:23;-0.60;84.00
78184;DHT22;67442;44.570;18.610;2023-02-10T16:14:55;-0.60;84.50
78184;DHT22;67442;44.570;18.610;2023-02-10T16:17:26;-0.80;85.30
78184;DHT22;67442;44.570;18.610;2023-02-10T16:19:54;-1.00;86.30
78184;DHT22;67442;44.570;18.610;2023-02-10T16:22:21;-1.20;87.60
78184;DHT22;67442;44.570;18.610;2023-02-10T16:24:48;-1.20;88.00
78184;DHT22;67442;44.570;18.610;2023-02-10T16:27:15;-1.20;88.40
78184;DHT22;67442;44.570;18.610;2023-02-10T16:29:46;-1.30;88.60
78184;DHT22;67442;44.570;18.610;2023-02-10T16:32:14;-1.30;88.70
78184;DHT22;67442;44.570;18.610;2023-02-10T16:34:41;-1.40;88.90
78184;DHT22;67442;44.570;18.610;2023-02-10T16:37:18;-1.40;89.40
78184;DHT22;67442;44.570;18.610;2023-02-10T16:39:45;-1.40;89.50
78184;DHT22;67442;44.570;18.610;2023-02-10T16:42:12;-1.50;89.00
78184;DHT22;67442;44.570;18.610;2023-02-10T16:44:40;-1.60;89.50
78184;DHT22;67442;44.570;18.610;2023-02-10T16:47:15;-1.60;89.40
78184;DHT22;67442;44.570;18.610;2023-02-10T16:49:43;-1.60;89.80
78184;DHT22;67442;44.570;18.610;2023-02-10T16:52:10;-1.70;90.00
78184;DHT22;67442;44.570;18.610;2023-02-10T16:54:37;-1.80;90.00
78184;DHT22;67442;44.570;18.610;2023-02-10T16:57:06;-1.80;90.30
78184;DHT22;67442;44.570;18.610;2023-02-10T16:59:33;-1.70;90.30
78184;DHT22;67442;44.570;18.610;2023-02-10T17:02:00;-1.70;90.20
78184;DHT22;67442;44.570;18.610;2023-02-10T17:04:27;-1.80;90.30
78184;DHT22;67442;44.570;18.610;2023-02-10T17:06:55;-1.90;90.30
78184;DHT22;67442;44.570;18.610;2023-02-10T17:09:23;-1.90;90.20
78184;DHT22;67442;44.570;18.610;2023-02-10T17:11:50;-1.90;90.20
78184;DHT22;67442;44.570;18.610;2023-02-10T17:14:18;-1.90;90.10
78184;DHT22;67442;44.570;18.610;2023-02-10T17:16:49;-2.00;90.10
78184;DHT22;67442;44.570;18.610;2023-02-10T17:19:19;-2.00;90.50
78184;DHT22;67442;44.570;18.610;2023-02-10T17:21:46;-2.00;90.70
78184;DHT22;67442;44.570;18.610;2023-02-10T17:24:14;-2.00;90.60
78184;DHT22;67442;44.570;18.610;2023-02-10T17:26:41;-1.90;90.60
78184;DHT22;67442;44.570;18.610;2023-02-10T17:29:28;-2.00;90.50
78184;DHT22;67442;44.570;18.610;2023-02-10T17:31:55;-2.00;90.40
78184;DHT22;67442;44.570;18.610;2023-02-10T17:34:26;-2.00;90.80
78184;DHT22;67442;44.570;18.610;2023-02-10T17:37:00;-2.10;90.40
78184;DHT22;67442;44.570;18.610;2023-02-10T17:39:28;-2.20;90.50
78184;DHT22;67442;44.570;18.610;2023-02-10T17:42:00;-2.40;90.70
78184;DHT22;67442;44.570;18.610;2023-02-10T17:44:28;-2.60;90.90
78184;DHT22;67442;44.570;18.610;2023-02-10T17:46:56;-2.80;91.30